Time;durP1;ratioP1;P1;durP2;ratioP2;P2;SDS_P1;SDS_P2;PMS_P1;PMS_P2;Temp;Humidity;BMP_temperature;BMP_pressure;BME280_temperature;BME280_humidity;BME280_pressure;Samples;Min_cycle;Max_cycle;Signal;HPM_P1;HPM_P2
2023/05/03 00:01:27;;;;;;;0.67;0.67;;;14.10;99.90;;;;;;5121589;27;20234;-66
2023/05/03 00:03:54;;;;;;;0.60;0.60;;;14.10;99.90;;;;;;5121521;27;20653;-66
2023/05/03 00:06:21;;;;;;;0.93;0.70;;;14.10;99.90;;;;;;5120995;27;20204;-66
2023/05/03 00:08:48;;;;;;;0.70;0.70;;;14.10;99.90;;;;;;5118537;27;20261;-66
2023/05/03 00:11:15;;;;;;;2.47;0.70;;;14.10;99.90;;;;;;5118710;27;20281;-66
2023/05/03 00:13:42;;;;;;;0.80;0.60;;;14.00;99.90;;;;;;5114259;27;20228;-65
2023/05/03 00:16:09;;;;;;;0.60;0.60;;;14.10;99.90;;;;;;5120999;27;20221;-65
2023/05/03 00:18:36;;;;;;;0.50;0.50;;;14.10;99.90;;;;;;5120061;27;20196;-66
2023/05/03 00:21:04;;;;;;;0.70;0.70;;;14.10;99.90;;;;;;5119160;27;20212;-66
2023/05/03 00:23:31;;;;;;;0.60;0.60;;;14.00;99.90;;;;;;5120103;27;20277;-66
2023/05/03 00:25:58;;;;;;;0.70;0.70;;;14.10;99.90;;;;;;5120847;27;20269;-66
2023/05/03 00:28:25;;;;;;;0.50;0.50;;;14.10;99.90;;;;;;5120649;27;20280;-66
2023/05/03 00:30:53;;;;;;;0.60;0.60;;;14.00;99.90;;;;;;5119624;27;20212;-66
2023/05/03 00:33:20;;;;;;;1.23;0.80;;;14.00;99.90;;;;;;5099814;27;20200;-66
2023/05/03 00:35:48;;;;;;;0.50;0.50;;;14.00;99.90;;;;;;5118862;27;20376;-66
2023/05/03 00:38:15;;;;;;;1.00;0.60;;;14.00;99.90;;;;;;5118217;27;20666;-65
2023/05/03 00:40:42;;;;;;;0.63;0.63;;;14.00;99.90;;;;;;5111365;27;20286;-65
2023/05/03 00:43:12;;;;;;;0.40;0.40;;;14.00;99.90;;;;;;5120744;27;20287;-66
2023/05/03 00:45:39;;;;;;;1.07;0.50;;;14.00;99.90;;;;;;5120742;27;20228;-66
2023/05/03 00:48:06;;;;;;;0.70;0.70;;;14.00;99.90;;;;;;5122717;27;20227;-65
2023/05/03 00:50:35;;;;;;;0.80;0.80;;;14.00;99.90;;;;;;5115661;27;20197;-66
2023/05/03 00:53:03;;;;;;;1.00;0.93;;;14.00;99.90;;;;;;5118753;27;20203;-66
2023/05/03 00:55:30;;;;;;;0.60;0.60;;;14.00;99.90;;;;;;5116446;27;20205;-66
2023/05/03 00:57:57;;;;;;;0.63;0.63;;;14.00;99.90;;;;;;5116702;27;20219;-66
2023/05/03 01:00:25;;;;;;;0.97;0.90;;;14.00;99.90;;;;;;5119123;27;20231;-66
2023/05/03 01:02:52;;;;;;;0.73;0.60;;;14.00;99.90;;;;;;5114536;27;20196;-66
2023/05/03 01:05:21;;;;;;;0.67;0.67;;;13.90;99.90;;;;;;5116959;27;20234;-66
2023/05/03 01:08:13;;;;;;;0.73;0.73;;;14.00;99.90;;;;;;5112546;27;20223;-66
2023/05/03 01:11:04;;;;;;;1.67;0.60;;;14.00;99.90;;;;;;5119181;27;20707;-66
2023/05/03 01:13:43;;;;;;;1.17;0.70;;;13.90;99.90;;;;;;5113042;27;20302;-66
2023/05/03 01:16:23;;;;;;;0.70;0.67;;;13.90;99.90;;;;;;5114356;27;20216;-66
2023/05/03 01:18:53;;;;;;;4.97;0.80;;;13.90;99.90;;;;;;5103168;28;20208;-66
2023/05/03 01:21:22;;;;;;;0.70;0.70;;;13.90;99.90;;;;;;5115939;27;20561;-65
2023/05/03 01:24:02;;;;;;;1.30;0.93;;;13.90;99.90;;;;;;5119659;27;20279;-65
2023/05/03 01:26:29;;;;;;;0.57;0.50;;;13.90;99.90;;;;;;5119639;27;20228;-66
2023/05/03 01:28:57;;;;;;;0.97;0.80;;;13.90;99.90;;;;;;5115624;27;20239;-66
2023/05/03 01:31:32;;;;;;;1.20;1.10;;;14.00;99.90;;;;;;5119566;27;20194;-66
2023/05/03 01:34:47;;;;;;;1.47;0.97;;;13.90;99.90;;;;;;5118886;27;20200;-66
2023/05/03 01:37:16;;;;;;;0.60;0.60;;;13.90;99.90;;;;;;5116673;27;20256;-66
2023/05/03 01:40:03;;;;;;;1.30;1.03;;;13.90;99.90;;;;;;5115092;27;20271;-66
2023/05/03 01:42:34;;;;;;;1.00;0.87;;;13.90;99.90;;;;;;5108138;27;20207;-66
2023/05/03 01:45:03;;;;;;;1.67;1.20;;;13.90;99.90;;;;;;5119941;27;20261;-66
2023/05/03 01:47:30;;;;;;;1.77;1.10;;;13.90;99.90;;;;;;5116407;27;20242;-66
2023/05/03 01:49:58;;;;;;;1.30;1.10;;;13.90;99.90;;;;;;5113792;27;20657;-67
2023/05/03 01:52:26;;;;;;;0.87;0.87;;;13.80;99.90;;;;;;5122116;27;20195;-66
2023/05/03 01:54:53;;;;;;;1.00;0.93;;;13.80;99.90;;;;;;5122370;27;20265;-65
2023/05/03 01:57:20;;;;;;;1.00;0.87;;;13.80;99.90;;;;;;5114972;27;20199;-65
2023/05/03 01:59:47;;;;;;;1.10;0.90;;;13.80;99.90;;;;;;5108989;27;20661;-65
2023/05/03 02:02:14;;;;;;;1.20;1.10;;;13.80;99.90;;;;;;5119757;27;20203;-65
2023/05/03 02:04:41;;;;;;;1.47;1.00;;;13.80;99.90;;;;;;5113644;27;20224;-65
2023/05/03 02:07:08;;;;;;;0.70;0.70;;;13.80;99.90;;;;;;5115433;27;20254;-65
2023/05/03 02:09:35;;;;;;;0.90;0.90;;;13.80;99.90;;;;;;5118528;27;20547;-66
2023/05/03 02:12:02;;;;;;;0.70;0.70;;;13.80;99.90;;;;;;5114318;27;20200;-65
2023/05/03 02:14:31;;;;;;;1.10;0.83;;;13.80;99.90;;;;;;5100671;28;20624;-65
2023/05/03 02:16:59;;;;;;;1.40;1.00;;;13.80;99.90;;;;;;5096722;28;20285;-65
2023/05/03 02:19:26;;;;;;;0.93;0.70;;;13.80;99.90;;;;;;5122796;27;20211;-65
2023/05/03 02:21:53;;;;;;;0.90;0.90;;;13.80;99.90;;;;;;5118797;27;20244;-65
2023/05/03 02:24:22;;;;;;;0.60;0.60;;;13.80;99.90;;;;;;5105855;27;20228;-65
2023/05/03 02:26:49;;;;;;;0.70;0.70;;;13.80;99.90;;;;;;5114907;27;20226;-65
2023/05/03 02:29:16;;;;;;;1.00;0.70;;;13.80;99.90;;;;;;5113851;27;20219;-65
2023/05/03 02:31:44;;;;;;;1.23;0.80;;;13.80;99.90;;;;;;5104067;27;20288;-65
2023/05/03 02:34:11;;;;;;;1.83;0.70;;;13.80;99.90;;;;;;5114077;27;20319;-65
2023/05/03 02:36:38;;;;;;;1.30;1.20;;;13.80;99.90;;;;;;5118497;27;20202;-65
2023/05/03 02:39:06;;;;;;;1.33;1.00;;;13.80;99.90;;;;;;5116127;27;20302;-65
2023/05/03 02:41:33;;;;;;;0.70;0.70;;;13.80;99.90;;;;;;5121540;27;20285;-65
2023/05/03 02:44:00;;;;;;;0.90;0.90;;;13.80;99.90;;;;;;5116248;27;20207;-65
2023/05/03 02:46:27;;;;;;;1.60;1.17;;;13.80;99.90;;;;;;5116960;27;20318;-65
2023/05/03 02:48:54;;;;;;;1.17;0.90;;;13.80;99.90;;;;;;5108562;28;20675;-65
2023/05/03 02:51:21;;;;;;;0.70;0.70;;;13.80;99.90;;;;;;5114667;28;20706;-65
2023/05/03 02:53:48;;;;;;;0.80;0.80;;;13.80;99.90;;;;;;5113235;28;20200;-66
2023/05/03 02:56:15;;;;;;;0.90;0.90;;;13.80;99.90;;;;;;5117929;28;20204;-66
2023/05/03 02:58:42;;;;;;;1.10;1.00;;;13.80;99.90;;;;;;5107537;28;20299;-66
2023/05/03 03:01:10;;;;;;;1.60;1.50;;;13.80;99.90;;;;;;5118263;28;20242;-66
2023/05/03 03:03:37;;;;;;;1.87;1.50;;;13.80;99.90;;;;;;5121550;28;20196;-66
2023/05/03 03:06:05;;;;;;;2.37;2.17;;;13.80;99.90;;;;;;5108781;28;20203;-66
2023/05/03 03:08:35;;;;;;;3.17;2.43;;;13.80;99.90;;;;;;5109494;28;20666;-66
2023/05/03 03:11:04;;;;;;;1.70;1.50;;;13.80;99.90;;;;;;5106293;28;20211;-66
2023/05/03 03:13:32;;;;;;;1.53;1.37;;;13.80;99.90;;;;;;5116197;28;20251;-66
2023/05/03 03:16:00;;;;;;;2.07;1.60;;;13.80;99.90;;;;;;5113719;28;20226;-66
2023/05/03 03:18:27;;;;;;;3.23;1.50;;;13.70;99.90;;;;;;5116130;28;20285;-66
2023/05/03 03:20:54;;;;;;;1.70;1.60;;;13.80;99.90;;;;;;5118036;28;20211;-66
2023/05/03 03:23:21;;;;;;;2.33;1.53;;;13.80;99.90;;;;;;5116149;28;20529;-65
2023/05/03 03:25:48;;;;;;;2.27;1.70;;;13.80;99.90;;;;;;5118466;28;20196;-65
2023/05/03 03:28:16;;;;;;;3.63;1.97;;;13.80;99.90;;;;;;5116776;28;20299;-65
2023/05/03 03:30:44;;;;;;;1.97;1.80;;;13.80;99.90;;;;;;5135293;27;20231;-65
2023/05/03 03:33:20;;;;;;;2.00;1.90;;;13.80;99.90;;;;;;5108513;28;20238;-66
2023/05/03 03:35:52;;;;;;;2.27;2.10;;;13.80;99.90;;;;;;5111739;28;20254;-65
2023/05/03 03:38:22;;;;;;;2.13;1.93;;;13.80;99.90;;;;;;5117581;28;20211;-65
2023/05/03 03:40:56;;;;;;;3.80;2.40;;;13.80;99.90;;;;;;5117154;28;20650;-66
2023/05/03 03:43:23;;;;;;;3.33;2.73;;;13.80;99.90;;;;;;5117484;28;20214;-66
2023/05/03 03:45:51;;;;;;;3.93;3.50;;;13.80;99.90;;;;;;5117862;27;20236;-66
2023/05/03 03:48:18;;;;;;;3.30;3.00;;;13.80;99.90;;;;;;5119877;28;20210;-66
2023/05/03 03:50:47;;;;;;;4.20;2.80;;;13.80;99.90;;;;;;5108663;27;20212;-66
2023/05/03 03:53:14;;;;;;;3.83;2.90;;;13.80;99.90;;;;;;5106147;27;20196;-65
2023/05/03 03:55:41;;;;;;;4.70;3.00;;;13.80;99.90;;;;;;5122656;27;20237;-65
2023/05/03 03:58:08;;;;;;;3.97;3.23;;;13.80;99.90;;;;;;5115180;27;20204;-65
2023/05/03 04:00:36;;;;;;;3.37;2.60;;;13.80;99.90;;;;;;5117080;27;20204;-65
2023/05/03 04:03:09;;;;;;;3.40;3.10;;;13.80;99.90;;;;;;5116387;27;20583;-65
2023/05/03 04:05:37;;;;;;;4.27;3.40;;;13.90;99.90;;;;;;5117495;27;20631;-65
2023/05/03 04:08:05;;;;;;;3.47;3.17;;;13.90;99.90;;;;;;5117917;27;20215;-65
2023/05/03 04:10:33;;;;;;;3.63;3.30;;;13.90;99.90;;;;;;5115167;27;20285;-65
2023/05/03 04:13:01;;;;;;;4.13;3.00;;;13.90;99.90;;;;;;5123957;27;20223;-65
2023/05/03 04:15:28;;;;;;;3.10;2.80;;;13.90;99.90;;;;;;5120690;27;20513;-65
2023/05/03 04:17:58;;;;;;;4.00;3.60;;;13.90;99.90;;;;;;5114213;27;20601;-65
2023/05/03 04:20:25;;;;;;;5.03;3.60;;;14.00;99.90;;;;;;5123101;27;20203;-65
2023/05/03 04:22:53;;;;;;;3.80;3.40;;;14.00;99.90;;;;;;5116994;27;20295;-65
2023/05/03 04:25:25;;;;;;;5.37;3.97;;;14.00;99.90;;;;;;5116955;27;20205;-65
2023/05/03 04:27:59;;;;;;;4.67;3.60;;;14.00;99.90;;;;;;5117073;27;20649;-65
2023/05/03 04:30:28;;;;;;;4.70;4.03;;;14.00;99.90;;;;;;5106704;27;20645;-65
2023/05/03 04:32:59;;;;;;;4.80;4.30;;;14.00;99.90;;;;;;5109984;28;20195;-65
2023/05/03 04:35:28;;;;;;;6.67;4.17;;;14.10;99.90;;;;;;5111039;27;20677;-65
2023/05/03 04:37:58;;;;;;;5.20;4.30;;;14.10;99.90;;;;;;5118688;27;20242;-65
2023/05/03 04:40:26;;;;;;;7.93;4.37;;;14.10;99.90;;;;;;5118319;27;20301;-65
2023/05/03 04:43:00;;;;;;;6.60;4.33;;;14.10;99.90;;;;;;5118283;27;20251;-65
2023/05/03 04:45:30;;;;;;;8.60;5.20;;;14.10;99.90;;;;;;5114765;27;20251;-65
2023/05/03 04:47:57;;;;;;;5.03;4.53;;;14.20;99.90;;;;;;5118664;27;20525;-65
2023/05/03 04:50:24;;;;;;;5.63;4.30;;;14.10;99.90;;;;;;5113371;27;20219;-65
2023/05/03 04:52:52;;;;;;;6.00;4.83;;;14.10;99.90;;;;;;5119380;27;20209;-65
2023/05/03 04:55:21;;;;;;;6.07;4.60;;;14.20;99.90;;;;;;5120682;27;20202;-65
2023/05/03 04:57:50;;;;;;;5.83;5.23;;;14.20;99.90;;;;;;5114299;27;20275;-65
2023/05/03 05:00:17;;;;;;;5.10;4.60;;;14.20;99.90;;;;;;5115077;27;20223;-65
2023/05/03 05:02:51;;;;;;;6.60;5.40;;;14.20;99.90;;;;;;5115978;27;20650;-66
2023/05/03 05:05:19;;;;;;;5.30;4.67;;;14.20;99.90;;;;;;5115819;27;20205;-66
2023/05/03 05:07:46;;;;;;;5.80;5.20;;;14.20;99.90;;;;;;5130646;27;20631;-66
2023/05/03 05:10:16;;;;;;;6.57;5.47;;;14.10;99.90;;;;;;5119253;27;20308;-66
2023/05/03 05:12:43;;;;;;;7.20;5.37;;;14.20;99.90;;;;;;5122122;27;20212;-66
2023/05/03 05:15:10;;;;;;;6.70;5.43;;;14.20;99.90;;;;;;5116295;27;20236;-66
2023/05/03 05:17:38;;;;;;;6.07;5.30;;;14.20;99.90;;;;;;5123897;27;20192;-66
2023/05/03 05:20:12;;;;;;;7.13;5.03;;;14.20;99.90;;;;;;5112858;27;20204;-66
2023/05/03 05:22:43;;;;;;;5.47;4.97;;;14.20;99.90;;;;;;5134520;27;20282;-66
2023/05/03 05:25:10;;;;;;;6.53;5.80;;;14.20;99.90;;;;;;5114689;27;20258;-66
2023/05/03 05:27:40;;;;;;;5.67;5.10;;;14.20;99.90;;;;;;5120683;27;20210;-66
2023/05/03 05:30:07;;;;;;;5.67;4.87;;;14.20;99.90;;;;;;5117297;27;20240;-66
2023/05/03 05:32:36;;;;;;;7.07;5.07;;;14.20;99.90;;;;;;5116416;27;20253;-66
2023/05/03 05:35:05;;;;;;;6.30;5.37;;;14.20;99.90;;;;;;5116681;27;20320;-66
2023/05/03 05:37:32;;;;;;;6.17;5.37;;;14.20;99.90;;;;;;5116304;27;20203;-66
2023/05/03 05:40:03;;;;;;;6.27;5.43;;;14.20;99.90;;;;;;5118934;27;20208;-66
2023/05/03 05:42:36;;;;;;;6.10;5.50;;;14.20;99.90;;;;;;5114001;27;20223;-66
2023/05/03 05:45:06;;;;;;;7.00;5.30;;;14.30;99.90;;;;;;5111516;27;20697;-66
2023/05/03 05:47:35;;;;;;;7.30;5.37;;;14.30;99.90;;;;;;5122152;27;20576;-66
2023/05/03 05:50:03;;;;;;;6.37;5.33;;;14.30;99.90;;;;;;5113976;27;20222;-66
2023/05/03 05:52:42;;;;;;;9.83;5.93;;;14.30;99.90;;;;;;5113887;27;20307;-66
2023/05/03 05:55:12;;;;;;;8.57;5.67;;;14.30;99.90;;;;;;5120855;27;20516;-66
2023/05/03 05:57:40;;;;;;;9.00;5.77;;;14.30;99.90;;;;;;5116831;27;20234;-66
2023/05/03 06:00:13;;;;;;;6.40;5.23;;;14.30;99.90;;;;;;5136157;27;20527;-66
2023/05/03 06:02:41;;;;;;;6.00;5.30;;;14.40;99.90;;;;;;5108964;27;20565;-66
2023/05/03 06:05:12;;;;;;;9.53;6.33;;;14.40;99.90;;;;;;5107652;27;20634;-66
2023/05/03 06:07:39;;;;;;;6.57;5.83;;;14.40;99.90;;;;;;5117184;27;20695;-66
2023/05/03 06:10:06;;;;;;;8.40;6.30;;;14.40;99.90;;;;;;5108940;27;20267;-66
2023/05/03 06:12:35;;;;;;;7.07;5.77;;;14.40;99.90;;;;;;5117057;27;20209;-66
2023/05/03 06:15:06;;;;;;;6.50;5.90;;;14.40;99.90;;;;;;5113123;27;20248;-66
2023/05/03 06:17:35;;;;;;;8.13;6.67;;;14.50;99.90;;;;;;5129767;27;20214;-66
2023/05/03 06:20:03;;;;;;;8.13;6.13;;;14.50;99.90;;;;;;5116758;27;20668;-66
2023/05/03 06:22:31;;;;;;;7.57;6.07;;;14.50;99.90;;;;;;5122640;27;20270;-66
2023/05/03 06:24:58;;;;;;;12.50;6.33;;;14.50;99.90;;;;;;5118493;27;20196;-66
2023/05/03 06:27:26;;;;;;;9.27;5.80;;;14.60;99.90;;;;;;5114408;27;20199;-66
2023/05/03 06:29:54;;;;;;;6.97;5.47;;;14.60;99.90;;;;;;5104693;28;20228;-66
2023/05/03 06:32:22;;;;;;;7.83;6.20;;;14.60;99.90;;;;;;5113921;27;20196;-66
2023/05/03 06:34:50;;;;;;;7.77;6.90;;;14.70;99.90;;;;;;5099340;28;20211;-66
2023/05/03 06:37:17;;;;;;;7.53;6.20;;;14.70;99.90;;;;;;5115848;27;20203;-66
2023/05/03 06:39:44;;;;;;;8.33;6.27;;;14.80;99.90;;;;;;5116282;27;20205;-66
2023/05/03 06:42:11;;;;;;;9.10;6.17;;;14.80;99.90;;;;;;5114881;27;20666;-66
2023/05/03 06:44:41;;;;;;;10.60;6.60;;;14.80;99.90;;;;;;5112907;27;20250;-66
2023/05/03 06:47:08;;;;;;;9.93;7.30;;;14.80;99.90;;;;;;5120626;27;20928;-66
2023/05/03 06:49:36;;;;;;;7.40;6.63;;;14.90;99.90;;;;;;5117714;27;20192;-64
2023/05/03 06:52:03;;;;;;;10.73;6.60;;;14.90;99.90;;;;;;5110458;27;20202;-64
2023/05/03 06:54:30;;;;;;;8.73;6.73;;;14.90;99.90;;;;;;5122204;28;20219;-64
2023/05/03 06:56:57;;;;;;;9.50;7.53;;;14.90;99.90;;;;;;5116825;27;20257;-64
2023/05/03 06:59:25;;;;;;;9.23;7.90;;;14.90;99.90;;;;;;5113091;28;20196;-64
2023/05/03 07:01:52;;;;;;;10.80;8.00;;;15.00;99.90;;;;;;5116665;28;20200;-66
2023/05/03 07:04:19;;;;;;;8.97;7.40;;;15.00;99.90;;;;;;5115507;28;20690;-66
2023/05/03 07:06:47;;;;;;;9.20;7.30;;;15.00;99.90;;;;;;5116727;28;20203;-66
2023/05/03 07:09:22;;;;;;;8.37;7.00;;;15.00;99.90;;;;;;5110864;28;20207;-66
2023/05/03 07:12:08;;;;;;;8.90;7.33;;;15.00;99.90;;;;;;5115340;28;20252;-64
2023/05/03 07:14:35;;;;;;;10.83;7.53;;;15.10;99.90;;;;;;5118627;28;20235;-65
2023/05/03 07:17:02;;;;;;;11.43;8.33;;;15.10;99.90;;;;;;5107760;28;20199;-67
2023/05/03 07:19:29;;;;;;;10.67;8.03;;;15.10;99.90;;;;;;5116510;28;20219;-66
2023/05/03 07:21:56;;;;;;;9.87;7.63;;;15.10;99.90;;;;;;5117409;28;20217;-67
2023/05/03 07:24:25;;;;;;;9.87;8.80;;;15.10;99.90;;;;;;5114971;28;20200;-64
2023/05/03 07:26:53;;;;;;;12.23;8.73;;;15.10;99.90;;;;;;5119998;27;20211;-66
2023/05/03 07:29:20;;;;;;;11.27;8.17;;;15.20;99.90;;;;;;5126141;27;20204;-66
2023/05/03 07:31:47;;;;;;;13.20;9.27;;;15.10;99.90;;;;;;5120540;27;20303;-65
2023/05/03 07:34:17;;;;;;;9.70;8.47;;;15.20;99.90;;;;;;5116871;27;20198;-66
2023/05/03 07:36:44;;;;;;;12.30;9.00;;;15.20;99.90;;;;;;5118515;27;20249;-66
2023/05/03 07:39:11;;;;;;;9.77;8.20;;;15.20;99.90;;;;;;5121396;27;20278;-66
2023/05/03 07:41:38;;;;;;;9.93;8.33;;;15.20;99.90;;;;;;5115908;27;20526;-68
2023/05/03 07:44:06;;;;;;;14.77;8.70;;;15.30;99.90;;;;;;5120333;27;20212;-66
2023/05/03 07:46:34;;;;;;;10.87;9.13;;;15.30;99.90;;;;;;5122315;27;20238;-68
2023/05/03 07:49:03;;;;;;;10.60;8.90;;;15.30;99.90;;;;;;5118743;27;20245;-66
2023/05/03 07:51:37;;;;;;;10.57;8.50;;;15.30;99.90;;;;;;5125018;27;20661;-67
2023/05/03 07:54:05;;;;;;;8.33;7.30;;;15.40;99.90;;;;;;5112018;27;20193;-65
2023/05/03 07:56:32;;;;;;;10.33;9.00;;;15.40;99.90;;;;;;5116817;27;20200;-64
2023/05/03 07:58:59;;;;;;;11.87;8.57;;;15.40;99.90;;;;;;5116635;27;20223;-66
2023/05/03 08:01:29;;;;;;;9.00;8.17;;;15.40;99.90;;;;;;5109960;27;20521;-65
2023/05/03 08:03:57;;;;;;;12.90;10.03;;;15.50;99.90;;;;;;5122796;27;20321;-66
2023/05/03 08:06:24;;;;;;;11.23;8.87;;;15.60;99.90;;;;;;5120075;27;20638;-65
2023/05/03 08:08:51;;;;;;;11.37;9.17;;;15.60;99.90;;;;;;5117382;27;20625;-67
2023/05/03 08:11:19;;;;;;;11.80;9.17;;;15.60;99.90;;;;;;5117188;27;20661;-63
2023/05/03 08:13:46;;;;;;;11.27;8.60;;;15.70;99.90;;;;;;5120998;27;20588;-62
2023/05/03 08:16:13;;;;;;;14.77;8.77;;;15.80;99.90;;;;;;5125593;27;20214;-62
2023/05/03 08:18:40;;;;;;;9.37;8.40;;;15.80;99.90;;;;;;5110127;27;20189;-63
2023/05/03 08:21:08;;;;;;;10.13;8.17;;;15.90;99.90;;;;;;5118432;27;20201;-63
2023/05/03 08:23:35;;;;;;;11.57;8.90;;;15.90;99.90;;;;;;5121087;27;20527;-66
2023/05/03 08:26:03;;;;;;;10.27;9.10;;;16.00;99.90;;;;;;5116652;27;20272;-64
2023/05/03 08:28:30;;;;;;;11.87;8.97;;;16.00;99.90;;;;;;5118851;27;20223;-63
2023/05/03 08:30:57;;;;;;;12.40;9.37;;;16.10;99.90;;;;;;5114112;27;20330;-66
2023/05/03 08:33:24;;;;;;;12.87;9.90;;;16.10;99.90;;;;;;5121209;27;20196;-62
2023/05/03 08:35:51;;;;;;;11.17;10.00;;;16.10;99.90;;;;;;5118126;27;20197;-67
2023/05/03 08:38:18;;;;;;;9.90;8.90;;;16.20;99.90;;;;;;5116608;27;20198;-65
2023/05/03 08:40:49;;;;;;;11.23;9.23;;;16.20;99.90;;;;;;5119714;27;20204;-64
2023/05/03 08:43:19;;;;;;;9.47;8.50;;;16.30;99.90;;;;;;5113463;27;20207;-66
2023/05/03 08:45:46;;;;;;;9.17;8.10;;;16.40;99.90;;;;;;5115704;27;20243;-64
2023/05/03 08:48:13;;;;;;;9.77;8.53;;;16.40;99.90;;;;;;5118843;27;20205;-64
2023/05/03 08:50:41;;;;;;;9.97;8.93;;;16.50;99.90;;;;;;5116328;27;20294;-67
2023/05/03 08:53:09;;;;;;;7.73;6.90;;;16.60;99.90;;;;;;5119543;27;20536;-67
2023/05/03 08:55:36;;;;;;;10.87;7.43;;;16.60;99.90;;;;;;5120338;27;20199;-68
2023/05/03 08:58:11;;;;;;;10.37;8.03;;;16.70;99.90;;;;;;5123306;27;20283;-66
2023/05/03 09:00:43;;;;;;;8.13;7.27;;;16.80;99.90;;;;;;5114351;27;20201;-64
2023/05/03 09:03:10;;;;;;;7.20;6.03;;;16.80;99.60;;;;;;5111703;27;20227;-65
2023/05/03 09:05:39;;;;;;;6.50;5.80;;;16.90;99.50;;;;;;5117981;27;20199;-64
2023/05/03 09:08:08;;;;;;;6.40;5.60;;;16.90;99.40;;;;;;5117890;27;20233;-64
2023/05/03 09:10:40;;;;;;;8.57;5.03;;;16.90;98.70;;;;;;5118626;27;20228;-65
2023/05/03 09:13:10;;;;;;;6.80;5.73;;;16.90;98.80;;;;;;5118722;27;20213;-66
2023/05/03 09:15:38;;;;;;;6.07;5.47;;;16.90;98.80;;;;;;5118382;27;20189;-65
2023/05/03 09:18:12;;;;;;;7.43;4.87;;;17.00;98.60;;;;;;5118198;27;20198;-65
2023/05/03 09:20:40;;;;;;;6.60;4.93;;;17.00;98.80;;;;;;5117767;27;20223;-67
2023/05/03 09:23:09;;;;;;;5.47;4.70;;;17.10;98.70;;;;;;5119679;27;20286;-69
2023/05/03 09:25:52;;;;;;;5.00;4.20;;;17.10;98.50;;;;;;5113919;27;20217;-64
2023/05/03 09:28:20;;;;;;;4.73;4.07;;;17.10;98.00;;;;;;5111524;27;20707;-64
2023/05/03 09:30:48;;;;;;;5.43;3.77;;;17.00;97.90;;;;;;5119726;27;20212;-64
2023/05/03 09:33:21;;;;;;;4.97;4.27;;;17.00;98.10;;;;;;5116880;27;20567;-65
2023/05/03 09:35:59;;;;;;;4.37;3.97;;;17.10;98.20;;;;;;5118097;27;20227;-65
2023/05/03 09:38:27;;;;;;;5.27;3.83;;;17.10;98.30;;;;;;5117261;27;20256;-64
2023/05/03 09:40:55;;;;;;;4.97;4.17;;;17.20;98.30;;;;;;5120597;27;20192;-68
2023/05/03 09:43:22;;;;;;;5.60;3.97;;;17.20;98.30;;;;;;5117407;27;20206;-66
2023/05/03 09:45:49;;;;;;;3.80;3.37;;;17.40;98.20;;;;;;5114928;27;20379;-66
2023/05/03 09:48:17;;;;;;;4.23;3.40;;;17.40;97.80;;;;;;5113785;27;20255;-66
2023/05/03 09:50:45;;;;;;;4.60;3.33;;;17.50;97.70;;;;;;5119536;27;20214;-67
2023/05/03 09:53:13;;;;;;;5.07;3.30;;;17.50;97.70;;;;;;5114029;27;20200;-64
2023/05/03 09:55:39;;;;;;;3.80;3.50;;;17.60;97.60;;;;;;5117232;27;20222;-67
2023/05/03 09:58:07;;;;;;;3.90;3.57;;;17.70;97.50;;;;;;5116710;27;20206;-67
2023/05/03 10:00:39;;;;;;;5.37;3.77;;;17.70;97.50;;;;;;5115231;27;20191;-67
2023/05/03 10:03:11;;;;;;;2.70;2.50;;;17.80;97.50;;;;;;5115425;27;20195;-67
2023/05/03 10:05:45;;;;;;;3.63;2.90;;;17.80;97.40;;;;;;5115268;27;20204;-66
2023/05/03 10:08:33;;;;;;;2.87;2.57;;;17.90;97.20;;;;;;5118188;27;20305;-68
2023/05/03 10:11:03;;;;;;;3.37;3.07;;;18.00;97.10;;;;;;5110578;27;20211;-67
2023/05/03 10:13:30;;;;;;;2.97;2.77;;;18.00;97.00;;;;;;5113719;27;20617;-68
2023/05/03 10:16:04;;;;;;;3.13;2.87;;;18.00;97.00;;;;;;5117630;27;20213;-68
2023/05/03 10:18:32;;;;;;;2.30;1.87;;;18.10;97.00;;;;;;5111755;27;20286;-68
2023/05/03 10:21:11;;;;;;;2.20;1.50;;;18.20;96.70;;;;;;5117552;27;20200;-68
2023/05/03 10:24:11;;;;;;;2.50;2.30;;;18.30;96.50;;;;;;5117055;27;20272;-67
2023/05/03 10:26:46;;;;;;;3.43;2.27;;;18.30;96.20;;;;;;5119337;27;20286;-68
2023/05/03 10:29:36;;;;;;;2.30;2.10;;;18.40;96.00;;;;;;5113597;27;20206;-68
2023/05/03 10:32:04;;;;;;;2.30;2.10;;;18.50;95.80;;;;;;5115774;27;20228;-67
2023/05/03 10:34:33;;;;;;;3.03;2.63;;;18.60;95.70;;;;;;5116666;27;20203;-68
2023/05/03 10:37:01;;;;;;;1.80;1.70;;;18.70;95.10;;;;;;5109264;27;20203;-68
2023/05/03 10:39:30;;;;;;;2.30;2.00;;;18.70;94.90;;;;;;5116412;27;20199;-68
2023/05/03 10:42:06;;;;;;;2.17;1.93;;;18.80;94.90;;;;;;5117203;27;20223;-67
2023/05/03 10:44:38;;;;;;;2.40;2.00;;;18.90;94.70;;;;;;5113498;27;20243;-68
2023/05/03 10:47:16;;;;;;;2.47;1.63;;;18.90;94.60;;;;;;5118309;27;20237;-67
2023/05/03 10:49:44;;;;;;;3.17;1.57;;;19.00;94.30;;;;;;5117995;28;20201;-68
2023/05/03 10:52:50;;;;;;;3.63;1.83;;;19.20;94.20;;;;;;5120972;27;20212;-68
2023/05/03 10:55:19;;;;;;;2.33;2.07;;;19.30;94.10;;;;;;5105404;27;20232;-68
2023/05/03 10:57:47;;;;;;;1.57;1.47;;;19.40;93.80;;;;;;5114636;28;20261;-67
2023/05/03 11:00:36;;;;;;;2.73;1.50;;;19.50;93.20;;;;;;5113246;27;20203;-68
2023/05/03 11:03:12;;;;;;;1.77;1.63;;;19.60;92.80;;;;;;5113072;28;20203;-68
2023/05/03 11:05:39;;;;;;;1.70;1.50;;;19.60;92.90;;;;;;5119870;28;20194;-68
2023/05/03 11:08:21;;;;;;;1.80;1.60;;;19.70;93.10;;;;;;5116047;28;20295;-68
2023/05/03 11:10:50;;;;;;;1.30;1.20;;;19.80;92.70;;;;;;5120629;28;20198;-68
2023/05/03 11:13:17;;;;;;;1.50;1.40;;;19.80;91.60;;;;;;5117622;27;20537;-68
2023/05/03 11:15:44;;;;;;;2.57;1.30;;;19.80;91.70;;;;;;5113050;27;20195;-68
2023/05/03 11:18:14;;;;;;;1.37;1.27;;;19.80;91.50;;;;;;5112859;28;20218;-68
2023/05/03 11:20:41;;;;;;;2.53;1.50;;;19.80;91.80;;;;;;5110738;28;20631;-68
2023/05/03 11:23:10;;;;;;;1.40;1.30;;;19.80;91.80;;;;;;5121054;27;20283;-68
2023/05/03 11:25:37;;;;;;;1.60;1.50;;;19.80;91.90;;;;;;5113952;28;20200;-68
2023/05/03 11:28:04;;;;;;;1.63;1.50;;;19.80;92.10;;;;;;5118435;27;20195;-67
2023/05/03 11:30:33;;;;;;;1.50;1.27;;;19.80;92.40;;;;;;5116739;28;20630;-67
2023/05/03 11:33:01;;;;;;;1.10;1.00;;;19.80;92.50;;;;;;5117210;27;20694;-68
2023/05/03 11:35:29;;;;;;;1.20;0.80;;;19.80;91.90;;;;;;5119188;27;20279;-67
2023/05/03 11:37:56;;;;;;;0.97;0.97;;;19.70;91.20;;;;;;5105611;27;20211;-67
2023/05/03 11:40:23;;;;;;;1.83;0.73;;;19.70;91.10;;;;;;5116482;28;20786;-67
2023/05/03 11:42:55;;;;;;;0.87;0.80;;;19.70;91.00;;;;;;5113580;28;20276;-67
2023/05/03 11:45:39;;;;;;;2.50;1.13;;;19.80;91.30;;;;;;5106777;28;20690;-67
2023/05/03 11:48:07;;;;;;;1.40;1.23;;;19.80;91.70;;;;;;5121355;28;20200;-67
2023/05/03 11:50:49;;;;;;;3.07;1.20;;;19.80;91.70;;;;;;5111780;28;20211;-67
2023/05/03 11:53:17;;;;;;;0.80;0.80;;;19.90;91.90;;;;;;5117623;28;20546;-67
2023/05/03 11:55:49;;;;;;;1.53;0.90;;;20.00;91.90;;;;;;5116854;28;20516;-67
2023/05/03 11:58:19;;;;;;;0.83;0.70;;;20.00;91.10;;;;;;5116564;28;20223;-67
2023/05/03 12:00:48;;;;;;;0.90;0.90;;;20.10;91.00;;;;;;5119265;28;20197;-67
2023/05/03 12:03:23;;;;;;;2.20;1.00;;;20.10;90.70;;;;;;5107092;28;20271;-67
2023/05/03 12:05:57;;;;;;;2.30;0.80;;;20.20;90.90;;;;;;5118888;28;20317;-67
2023/05/03 12:08:31;;;;;;;2.03;1.00;;;20.20;90.80;;;;;;5115026;28;20275;-67
2023/05/03 12:11:04;;;;;;;0.77;0.77;;;20.30;90.70;;;;;;5107828;28;20190;-67
2023/05/03 12:13:34;;;;;;;3.53;1.10;;;20.40;90.60;;;;;;5106990;27;20207;-67
2023/05/03 12:16:09;;;;;;;0.83;0.83;;;20.60;89.90;;;;;;5120493;27;20203;-67
2023/05/03 12:18:51;;;;;;;0.97;0.70;;;20.80;88.80;;;;;;5120184;27;20200;-67
2023/05/03 12:21:24;;;;;;;1.63;0.93;;;21.10;86.80;;;;;;5119539;27;20287;-67
2023/05/03 12:23:57;;;;;;;1.90;1.17;;;21.30;86.60;;;;;;5118681;27;20200;-67
2023/05/03 12:26:27;;;;;;;0.70;0.70;;;21.50;85.50;;;;;;5113372;27;20618;-67
2023/05/03 12:28:55;;;;;;;0.90;0.90;;;21.60;83.80;;;;;;5117180;27;20201;-67
2023/05/03 12:31:23;;;;;;;0.90;0.90;;;21.70;81.90;;;;;;5117710;27;20223;-67
2023/05/03 12:33:50;;;;;;;1.10;0.90;;;21.60;81.60;;;;;;5120867;27;20569;-67
2023/05/03 12:36:20;;;;;;;1.07;0.87;;;21.80;81.70;;;;;;5116840;27;20193;-67
2023/05/03 12:38:52;;;;;;;0.93;0.87;;;21.90;80.50;;;;;;5119234;27;20641;-67
2023/05/03 12:41:24;;;;;;;1.30;1.20;;;22.00;79.50;;;;;;5118015;27;20203;-67
2023/05/03 12:43:55;;;;;;;1.33;1.20;;;22.10;79.00;;;;;;5119017;27;20672;-67
2023/05/03 12:46:24;;;;;;;1.43;0.80;;;22.10;78.10;;;;;;5108636;27;20624;-67
2023/05/03 12:49:01;;;;;;;1.90;0.80;;;22.20;77.20;;;;;;5115801;27;20192;-67
2023/05/03 12:51:33;;;;;;;0.60;0.60;;;22.20;72.90;;;;;;5116023;27;20213;-67
2023/05/03 12:54:00;;;;;;;0.73;0.73;;;22.20;72.80;;;;;;5117794;27;20604;-68
2023/05/03 12:56:29;;;;;;;2.57;0.80;;;22.20;72.50;;;;;;5122887;27;20195;-65
2023/05/03 12:58:59;;;;;;;1.10;1.00;;;22.10;73.50;;;;;;5117370;27;20211;-67